sensor_id;sensor_type;location;lat;lon;timestamp;pressure;altitude;pressure_sealevel;temperature;humidity
70684;BME280;58263;48.146;11.440;2023-05-19T00:01:06;96100.41;;;10.55;63.74
70684;BME280;58263;48.146;11.440;2023-05-19T00:03:33;96095.19;;;10.60;63.56
70684;BME280;58263;48.146;11.440;2023-05-19T00:06:01;96091.91;;;10.58;63.88
70684;BME280;58263;48.146;11.440;2023-05-19T00:08:29;96093.31;;;10.60;63.84
70684;BME280;58263;48.146;11.440;2023-05-19T00:10:56;96087.31;;;10.65;63.50
70684;BME280;58263;48.146;11.440;2023-05-19T00:13:22;96086.13;;;10.61;63.71
70684;BME280;58263;48.146;11.440;2023-05-19T00:15:48;96081.47;;;10.49;64.36
70684;BME280;58263;48.146;11.440;2023-05-19T00:18:13;96076.88;;;10.57;64.24
70684;BME280;58263;48.146;11.440;2023-05-19T00:20:40;96071.75;;;10.55;64.25
70684;BME280;58263;48.146;11.440;2023-05-19T00:23:06;96078.28;;;10.59;64.16
70684;BME280;58263;48.146;11.440;2023-05-19T00:25:31;96080.59;;;10.56;64.53
70684;BME280;58263;48.146;11.440;2023-05-19T00:27:56;96075.50;;;10.47;64.71
70684;BME280;58263;48.146;11.440;2023-05-19T00:30:23;96078.38;;;10.53;64.58
70684;BME280;58263;48.146;11.440;2023-05-19T00:32:48;96079.78;;;10.55;64.32
70684;BME280;58263;48.146;11.440;2023-05-19T00:35:14;96071.41;;;10.45;65.13
70684;BME280;58263;48.146;11.440;2023-05-19T00:37:40;96069.13;;;10.48;65.06
70684;BME280;58263;48.146;11.440;2023-05-19T00:40:06;96072.16;;;10.52;65.25
70684;BME280;58263;48.146;11.440;2023-05-19T00:42:32;96073.00;;;10.53;65.03
70684;BME280;58263;48.146;11.440;2023-05-19T00:44:58;96065.25;;;10.44;65.33
70684;BME280;58263;48.146;11.440;2023-05-19T00:47:23;96061.50;;;10.45;65.51
70684;BME280;58263;48.146;11.440;2023-05-19T00:49:49;96057.63;;;10.41;65.79
70684;BME280;58263;48.146;11.440;2023-05-19T00:52:14;96062.41;;;10.39;66.14
70684;BME280;58263;48.146;11.440;2023-05-19T00:54:40;96065.59;;;10.48;65.57
70684;BME280;58263;48.146;11.440;2023-05-19T00:57:05;96061.50;;;10.45;65.65
70684;BME280;58263;48.146;11.440;2023-05-19T00:59:30;96061.13;;;10.42;65.92
70684;BME280;58263;48.146;11.440;2023-05-19T01:01:56;96050.75;;;10.45;65.72
70684;BME280;58263;48.146;11.440;2023-05-19T01:04:21;96059.78;;;10.51;65.77
70684;BME280;58263;48.146;11.440;2023-05-19T01:06:50;96051.16;;;10.49;65.77
70684;BME280;58263;48.146;11.440;2023-05-19T01:09:20;96049.16;;;10.44;65.91
70684;BME280;58263;48.146;11.440;2023-05-19T01:11:45;96052.25;;;10.41;66.07
70684;BME280;58263;48.146;11.440;2023-05-19T01:14:10;96048.16;;;10.39;66.16
70684;BME280;58263;48.146;11.440;2023-05-19T01:16:39;96050.63;;;10.40;66.11
70684;BME280;58263;48.146;11.440;2023-05-19T01:19:22;96047.13;;;10.40;65.97
70684;BME280;58263;48.146;11.440;2023-05-19T01:30:42;96057.88;;;10.33;66.71
70684;BME280;58263;48.146;11.440;2023-05-19T01:33:09;96056.22;;;10.32;66.85
70684;BME280;58263;48.146;11.440;2023-05-19T01:35:37;96061.41;;;10.34;66.78
70684;BME280;58263;48.146;11.440;2023-05-19T01:38:04;96064.72;;;10.29;66.82
70684;BME280;58263;48.146;11.440;2023-05-19T01:40:32;96061.06;;;10.23;67.32
70684;BME280;58263;48.146;11.440;2023-05-19T01:42:58;96066.66;;;10.22;67.32
70684;BME280;58263;48.146;11.440;2023-05-19T01:45:27;96062.75;;;10.18;67.86
70684;BME280;58263;48.146;11.440;2023-05-19T01:47:55;96063.34;;;10.20;67.66
70684;BME280;58263;48.146;11.440;2023-05-19T01:50:21;96068.53;;;10.21;67.39
70684;BME280;58263;48.146;11.440;2023-05-19T01:52:46;96064.63;;;10.17;67.39
70684;BME280;58263;48.146;11.440;2023-05-19T01:55:11;96075.34;;;10.17;67.22
70684;BME280;58263;48.146;11.440;2023-05-19T01:58:01;96063.16;;;10.21;67.10
70684;BME280;58263;48.146;11.440;2023-05-19T02:00:37;96062.75;;;10.18;67.31
70684;BME280;58263;48.146;11.440;2023-05-19T02:03:34;96061.56;;;10.13;67.29
70684;BME280;58263;48.146;11.440;2023-05-19T02:06:28;96064.69;;;10.10;67.65
70684;BME280;58263;48.146;11.440;2023-05-19T02:13:56;96063.50;;;10.06;68.30
70684;BME280;58263;48.146;11.440;2023-05-19T02:16:27;96058.41;;;9.98;68.03
70684;BME280;58263;48.146;11.440;2023-05-19T02:18:53;96056.13;;;9.95;68.18
70684;BME280;58263;48.146;11.440;2023-05-19T02:21:18;96050.78;;;9.95;68.24
70684;BME280;58263;48.146;11.440;2023-05-19T02:23:44;96054.94;;;9.91;68.33
70684;BME280;58263;48.146;11.440;2023-05-19T02:26:09;96059.44;;;9.97;68.16
70684;BME280;58263;48.146;11.440;2023-05-19T02:28:35;96051.97;;;9.99;68.18
70684;BME280;58263;48.146;11.440;2023-05-19T02:31:03;96050.41;;;9.91;68.27
70684;BME280;58263;48.146;11.440;2023-05-19T02:33:33;96050.78;;;9.95;68.42
70684;BME280;58263;48.146;11.440;2023-05-19T02:35:58;96047.06;;;9.96;68.10
70684;BME280;58263;48.146;11.440;2023-05-19T02:38:24;96049.75;;;9.96;68.12
70684;BME280;58263;48.146;11.440;2023-05-19T02:40:51;96053.25;;;9.96;68.33
70684;BME280;58263;48.146;11.440;2023-05-19T02:43:17;96048.72;;;9.97;68.01
70684;BME280;58263;48.146;11.440;2023-05-19T02:45:42;96047.28;;;9.94;68.45
70684;BME280;58263;48.146;11.440;2023-05-19T02:48:07;96050.38;;;9.98;68.24
70684;BME280;58263;48.146;11.440;2023-05-19T02:50:33;96044.84;;;9.93;68.35
70684;BME280;58263;48.146;11.440;2023-05-19T02:52:58;96040.50;;;9.92;68.46
70684;BME280;58263;48.146;11.440;2023-05-19T02:55:23;96038.06;;;9.90;68.49
70684;BME280;58263;48.146;11.440;2023-05-19T02:57:48;96045.06;;;9.91;68.53
70684;BME280;58263;48.146;11.440;2023-05-19T03:00:14;96040.78;;;9.84;68.72
70684;BME280;58263;48.146;11.440;2023-05-19T03:02:40;96031.72;;;9.85;68.62
70684;BME280;58263;48.146;11.440;2023-05-19T03:05:06;96034.97;;;9.87;68.51
70684;BME280;58263;48.146;11.440;2023-05-19T03:07:32;96038.09;;;9.84;68.78
70684;BME280;58263;48.146;11.440;2023-05-19T03:09:57;96038.09;;;9.84;68.81
70684;BME280;58263;48.146;11.440;2023-05-19T03:12:23;96037.06;;;9.85;68.86
70684;BME280;58263;48.146;11.440;2023-05-19T03:14:48;96031.94;;;9.83;68.83
70684;BME280;58263;48.146;11.440;2023-05-19T03:17:13;96026.63;;;9.76;69.29
70684;BME280;58263;48.146;11.440;2023-05-19T03:19:39;96027.66;;;9.75;69.17
70684;BME280;58263;48.146;11.440;2023-05-19T03:22:05;96023.94;;;9.76;69.30
70684;BME280;58263;48.146;11.440;2023-05-19T03:24:31;96031.97;;;9.76;69.31
70684;BME280;58263;48.146;11.440;2023-05-19T03:26:56;96029.72;;;9.73;69.63
70684;BME280;58263;48.146;11.440;2023-05-19T03:29:22;96031.72;;;9.85;69.01
70684;BME280;58263;48.146;11.440;2023-05-19T03:31:47;96027.56;;;9.89;69.10
70684;BME280;58263;48.146;11.440;2023-05-19T03:34:12;96022.03;;;9.84;69.20
70684;BME280;58263;48.146;11.440;2023-05-19T03:36:38;96026.94;;;9.87;68.94
70684;BME280;58263;48.146;11.440;2023-05-19T03:39:07;96021.59;;;9.87;69.03
70684;BME280;58263;48.146;11.440;2023-05-19T03:41:33;96016.22;;;9.87;69.20
70684;BME280;58263;48.146;11.440;2023-05-19T03:43:58;96016.22;;;9.87;69.48
70684;BME280;58263;48.146;11.440;2023-05-19T03:46:23;96012.97;;;9.85;69.29
70684;BME280;58263;48.146;11.440;2023-05-19T03:48:49;96018.97;;;9.80;69.31
70684;BME280;58263;48.146;11.440;2023-05-19T03:51:14;96018.16;;;9.79;69.49
70684;BME280;58263;48.146;11.440;2023-05-19T03:53:40;96019.34;;;9.84;69.15
70684;BME280;58263;48.146;11.440;2023-05-19T03:56:06;96021.03;;;9.78;69.57
70684;BME280;58263;48.146;11.440;2023-05-19T03:58:37;96020.03;;;9.79;69.62
70684;BME280;58263;48.146;11.440;2023-05-19T04:01:04;96018.72;;;9.81;69.74
70684;BME280;58263;48.146;11.440;2023-05-19T04:03:30;96023.06;;;9.82;69.41
70684;BME280;58263;48.146;11.440;2023-05-19T04:05:55;96019.75;;;9.87;69.48
70684;BME280;58263;48.146;11.440;2023-05-19T04:08:20;96020.09;;;9.91;69.30
70684;BME280;58263;48.146;11.440;2023-05-19T04:10:46;96017.44;;;9.91;69.25
70684;BME280;58263;48.146;11.440;2023-05-19T04:13:11;96022.38;;;9.94;69.26
70684;BME280;58263;48.146;11.440;2023-05-19T04:15:36;96020.50;;;9.94;69.33
70684;BME280;58263;48.146;11.440;2023-05-19T04:18:01;96011.03;;;9.92;69.51
70684;BME280;58263;48.146;11.440;2023-05-19T04:20:27;96013.94;;;9.90;69.75
70684;BME280;58263;48.146;11.440;2023-05-19T04:22:52;96016.91;;;10.01;69.33
70684;BME280;58263;48.146;11.440;2023-05-19T04:25:17;96019.25;;;9.97;69.45
70684;BME280;58263;48.146;11.440;2023-05-19T04:27:44;96024.00;;;9.95;69.57
70684;BME280;58263;48.146;11.440;2023-05-19T04:30:10;96015.66;;;10.03;69.35
70684;BME280;58263;48.146;11.440;2023-05-19T04:32:36;96016.88;;;10.07;69.26
70684;BME280;58263;48.146;11.440;2023-05-19T04:35:01;96019.53;;;10.07;69.16
70684;BME280;58263;48.146;11.440;2023-05-19T04:37:27;96019.53;;;10.07;69.29
70684;BME280;58263;48.146;11.440;2023-05-19T04:39:54;96020.91;;;10.17;68.91
70684;BME280;58263;48.146;11.440;2023-05-19T04:42:19;96022.56;;;10.18;68.94
70684;BME280;58263;48.146;11.440;2023-05-19T04:44:45;96022.94;;;10.21;68.88
70684;BME280;58263;48.146;11.440;2023-05-19T04:47:13;96014.91;;;10.21;68.76
70684;BME280;58263;48.146;11.440;2023-05-19T04:49:39;96016.69;;;10.27;69.07
70684;BME280;58263;48.146;11.440;2023-05-19T04:52:08;96021.66;;;10.24;69.20
70684;BME280;58263;48.146;11.440;2023-05-19T04:54:37;96014.38;;;10.31;68.86
70684;BME280;58263;48.146;11.440;2023-05-19T04:57:03;96021.59;;;10.30;68.97
70684;BME280;58263;48.146;11.440;2023-05-19T04:59:29;96015.78;;;10.40;68.52
70684;BME280;58263;48.146;11.440;2023-05-19T05:01:55;96013.69;;;10.42;68.79
70684;BME280;58263;48.146;11.440;2023-05-19T05:04:20;96004.94;;;10.47;68.47
70684;BME280;58263;48.146;11.440;2023-05-19T05:06:46;96010.16;;;10.60;68.38
70684;BME280;58263;48.146;11.440;2023-05-19T05:09:13;96011.66;;;10.56;68.30
70684;BME280;58263;48.146;11.440;2023-05-19T05:11:39;96007.66;;;10.65;67.95
70684;BME280;58263;48.146;11.440;2023-05-19T05:14:05;96006.97;;;10.70;68.23
70684;BME280;58263;48.146;11.440;2023-05-19T05:16:31;96009.94;;;10.80;67.86
70684;BME280;58263;48.146;11.440;2023-05-19T05:18:58;96008.59;;;10.71;68.36
70684;BME280;58263;48.146;11.440;2023-05-19T05:21:24;96001.81;;;10.87;67.79
70684;BME280;58263;48.146;11.440;2023-05-19T05:23:50;95996.94;;;10.96;67.50
70684;BME280;58263;48.146;11.440;2023-05-19T05:26:17;96000.50;;;11.08;67.02
70684;BME280;58263;48.146;11.440;2023-05-19T05:28:49;95993.03;;;11.10;66.98
70684;BME280;58263;48.146;11.440;2023-05-19T05:31:15;95994.69;;;11.11;66.51
70684;BME280;58263;48.146;11.440;2023-05-19T05:33:41;96005.25;;;11.25;66.16
70684;BME280;58263;48.146;11.440;2023-05-19T05:36:07;95999.09;;;11.36;65.93
70684;BME280;58263;48.146;11.440;2023-05-19T05:38:32;96008.97;;;11.24;66.02
70684;BME280;58263;48.146;11.440;2023-05-19T05:40:58;95996.97;;;11.38;65.84
70684;BME280;58263;48.146;11.440;2023-05-19T05:43:23;95995.84;;;11.46;65.24
70684;BME280;58263;48.146;11.440;2023-05-19T05:45:48;96002.66;;;11.60;65.22
70684;BME280;58263;48.146;11.440;2023-05-19T05:48:14;96007.47;;;11.70;64.84
70684;BME280;58263;48.146;11.440;2023-05-19T05:50:42;96016.72;;;11.74;64.26
70684;BME280;58263;48.146;11.440;2023-05-19T05:53:08;96010.16;;;11.82;64.24
70684;BME280;58263;48.146;11.440;2023-05-19T05:55:34;96010.53;;;11.86;64.19
70684;BME280;58263;48.146;11.440;2023-05-19T05:57:59;96007.78;;;12.04;63.70
70684;BME280;58263;48.146;11.440;2023-05-19T06:00:26;96005.22;;;12.09;63.41
70684;BME280;58263;48.146;11.440;2023-05-19T06:02:52;96006.25;;;12.20;62.69
70684;BME280;58263;48.146;11.440;2023-05-19T06:05:18;96001.81;;;12.26;62.57
70684;BME280;58263;48.146;11.440;2023-05-19T06:07:43;96012.06;;;12.52;62.61
70684;BME280;58263;48.146;11.440;2023-05-19T06:10:08;96009.69;;;12.80;61.27
70684;BME280;58263;48.146;11.440;2023-05-19T06:12:34;96004.50;;;13.02;61.19
70684;BME280;58263;48.146;11.440;2023-05-19T06:15:01;95998.41;;;13.24;60.25
70684;BME280;58263;48.146;11.440;2023-05-19T06:17:27;96003.28;;;13.39;59.83
70684;BME280;58263;48.146;11.440;2023-05-19T06:19:53;96008.81;;;13.61;59.76
70684;BME280;58263;48.146;11.440;2023-05-19T06:22:18;96005.22;;;13.72;59.22
70684;BME280;58263;48.146;11.440;2023-05-19T06:24:43;95997.63;;;13.86;58.56
70684;BME280;58263;48.146;11.440;2023-05-19T06:27:08;96004.19;;;13.73;58.25
70684;BME280;58263;48.146;11.440;2023-05-19T06:29:34;96003.72;;;13.47;58.37
70684;BME280;58263;48.146;11.440;2023-05-19T06:31:59;96000.31;;;13.52;58.59
70684;BME280;58263;48.146;11.440;2023-05-19T06:34:25;95997.53;;;13.81;58.81
70684;BME280;58263;48.146;11.440;2023-05-19T06:36:51;95991.34;;;13.97;57.84
70684;BME280;58263;48.146;11.440;2023-05-19T06:39:16;95994.84;;;14.15;57.31
70684;BME280;58263;48.146;11.440;2023-05-19T06:41:41;95993.69;;;14.11;57.07
70684;BME280;58263;48.146;11.440;2023-05-19T06:44:07;95995.44;;;14.17;56.55
70684;BME280;58263;48.146;11.440;2023-05-19T06:46:33;95993.78;;;14.16;56.65
70684;BME280;58263;48.146;11.440;2023-05-19T06:48:58;95999.34;;;14.26;56.64
70684;BME280;58263;48.146;11.440;2023-05-19T06:51:24;95997.53;;;14.32;56.57
70684;BME280;58263;48.146;11.440;2023-05-19T06:53:49;95996.69;;;14.31;56.30
70684;BME280;58263;48.146;11.440;2023-05-19T06:56:14;96005.00;;;14.64;56.05
70684;BME280;58263;48.146;11.440;2023-05-19T06:58:40;96008.72;;;15.02;55.42
70684;BME280;58263;48.146;11.440;2023-05-19T07:01:05;96012.69;;;14.94;54.62
70684;BME280;58263;48.146;11.440;2023-05-19T07:03:31;96011.84;;;15.16;53.30
70684;BME280;58263;48.146;11.440;2023-05-19T07:05:56;96010.66;;;15.29;53.77
70684;BME280;58263;48.146;11.440;2023-05-19T07:08:21;96013.16;;;15.13;53.34
70684;BME280;58263;48.146;11.440;2023-05-19T07:10:47;96008.03;;;15.12;53.31
70684;BME280;58263;48.146;11.440;2023-05-19T07:13:12;96002.28;;;15.30;53.04
70684;BME280;58263;48.146;11.440;2023-05-19T07:15:37;95995.03;;;15.63;52.58
70684;BME280;58263;48.146;11.440;2023-05-19T07:18:03;96004.47;;;15.88;52.64
70684;BME280;58263;48.146;11.440;2023-05-19T07:20:29;96000.03;;;16.04;51.13
70684;BME280;58263;48.146;11.440;2023-05-19T07:22:54;96000.81;;;16.04;50.88
70684;BME280;58263;48.146;11.440;2023-05-19T07:25:19;95997.03;;;16.05;50.94
70684;BME280;58263;48.146;11.440;2023-05-19T07:27:45;96003.44;;;16.27;50.24
70684;BME280;58263;48.146;11.440;2023-05-19T07:30:10;95994.06;;;16.45;50.33
70684;BME280;58263;48.146;11.440;2023-05-19T07:32:36;95998.66;;;16.44;50.98
70684;BME280;58263;48.146;11.440;2023-05-19T07:35:01;96008.75;;;17.02;49.17
70684;BME280;58263;48.146;11.440;2023-05-19T07:37:27;96003.84;;;16.94;48.41
70684;BME280;58263;48.146;11.440;2023-05-19T07:39:52;96001.28;;;16.77;48.90
70684;BME280;58263;48.146;11.440;2023-05-19T07:42:17;96000.84;;;16.90;48.54
70684;BME280;58263;48.146;11.440;2023-05-19T07:44:43;95993.63;;;16.63;48.26
70684;BME280;58263;48.146;11.440;2023-05-19T07:47:08;95993.78;;;16.41;49.04
70684;BME280;58263;48.146;11.440;2023-05-19T07:49:33;95994.16;;;16.17;49.06
70684;BME280;58263;48.146;11.440;2023-05-19T07:51:59;95993.16;;;16.29;49.48
70684;BME280;58263;48.146;11.440;2023-05-19T07:54:24;96002.22;;;16.50;48.94
70684;BME280;58263;48.146;11.440;2023-05-19T07:56:50;95999.38;;;16.72;48.46
70684;BME280;58263;48.146;11.440;2023-05-19T07:59:15;96000.72;;;16.69;48.51
70684;BME280;58263;48.146;11.440;2023-05-19T08:01:41;96005.28;;;16.64;49.11
70684;BME280;58263;48.146;11.440;2023-05-19T08:04:06;95993.84;;;16.51;48.72
70684;BME280;58263;48.146;11.440;2023-05-19T08:06:32;95995.53;;;16.63;48.98
70684;BME280;58263;48.146;11.440;2023-05-19T08:08:57;95997.75;;;16.76;48.57
70684;BME280;58263;48.146;11.440;2023-05-19T08:11:22;95998.19;;;16.58;49.20
70684;BME280;58263;48.146;11.440;2023-05-19T08:13:48;95990.00;;;16.42;49.40
70684;BME280;58263;48.146;11.440;2023-05-19T08:16:16;95992.00;;;16.14;50.15
70684;BME280;58263;48.146;11.440;2023-05-19T08:18:42;95990.53;;;15.74;50.58
70684;BME280;58263;48.146;11.440;2023-05-19T08:21:07;95988.88;;;15.68;51.17
70684;BME280;58263;48.146;11.440;2023-05-19T08:23:33;95990.97;;;15.61;50.99
70684;BME280;58263;48.146;11.440;2023-05-19T08:25:59;95992.91;;;15.65;50.82
70684;BME280;58263;48.146;11.440;2023-05-19T08:28:24;95988.31;;;15.66;51.50
70684;BME280;58263;48.146;11.440;2023-05-19T08:30:50;95981.06;;;15.44;51.51
70684;BME280;58263;48.146;11.440;2023-05-19T08:33:16;95979.91;;;15.35;52.04
70684;BME280;58263;48.146;11.440;2023-05-19T08:35:42;95988.53;;;15.32;52.09
70684;BME280;58263;48.146;11.440;2023-05-19T08:38:07;95986.63;;;15.32;52.41
70684;BME280;58263;48.146;11.440;2023-05-19T08:40:33;95982.84;;;15.33;52.07
70684;BME280;58263;48.146;11.440;2023-05-19T08:43:01;95993.38;;;15.30;52.26
70684;BME280;58263;48.146;11.440;2023-05-19T08:45:27;95987.59;;;15.48;51.77
70684;BME280;58263;48.146;11.440;2023-05-19T08:47:53;95985.28;;;15.62;52.26
70684;BME280;58263;48.146;11.440;2023-05-19T08:50:28;95984.16;;;15.58;51.77
70684;BME280;58263;48.146;11.440;2023-05-19T08:53:06;95982.38;;;15.69;51.75
70684;BME280;58263;48.146;11.440;2023-05-19T08:55:35;95990.91;;;15.55;51.75
70684;BME280;58263;48.146;11.440;2023-05-19T08:58:05;95984.38;;;15.51;51.50
70684;BME280;58263;48.146;11.440;2023-05-19T09:00:31;95984.34;;;15.74;51.71
70684;BME280;58263;48.146;11.440;2023-05-19T09:02:57;95995.88;;;15.64;51.37
70684;BME280;58263;48.146;11.440;2023-05-19T09:05:24;95979.03;;;15.57;50.95
70684;BME280;58263;48.146;11.440;2023-05-19T09:07:50;95981.59;;;15.41;52.33
70684;BME280;58263;48.146;11.440;2023-05-19T09:10:15;95972.88;;;15.34;51.84
70684;BME280;58263;48.146;11.440;2023-05-19T09:12:45;95976.06;;;15.31;52.56
70684;BME280;58263;48.146;11.440;2023-05-19T09:15:11;95971.25;;;15.33;52.15
70684;BME280;58263;48.146;11.440;2023-05-19T09:17:39;95981.47;;;15.31;51.55
70684;BME280;58263;48.146;11.440;2023-05-19T09:20:05;95980.09;;;15.28;52.02
70684;BME280;58263;48.146;11.440;2023-05-19T09:22:40;95982.72;;;15.18;51.89
70684;BME280;58263;48.146;11.440;2023-05-19T09:25:17;95982.50;;;15.25;52.08
70684;BME280;58263;48.146;11.440;2023-05-19T09:27:42;95979.28;;;15.28;51.78
70684;BME280;58263;48.146;11.440;2023-05-19T09:30:07;95972.19;;;15.76;51.35
70684;BME280;58263;48.146;11.440;2023-05-19T09:32:34;95975.56;;;15.88;50.61
70684;BME280;58263;48.146;11.440;2023-05-19T09:35:02;95978.38;;;16.04;50.31
70684;BME280;58263;48.146;11.440;2023-05-19T09:37:28;95968.94;;;15.79;50.55
70684;BME280;58263;48.146;11.440;2023-05-19T09:39:53;95975.72;;;16.09;49.76
70684;BME280;58263;48.146;11.440;2023-05-19T09:42:25;95967.31;;;16.11;49.93
70684;BME280;58263;48.146;11.440;2023-05-19T09:45:03;95973.53;;;16.11;49.97
70684;BME280;58263;48.146;11.440;2023-05-19T09:47:39;95971.47;;;16.23;49.70
70684;BME280;58263;48.146;11.440;2023-05-19T09:50:09;95964.31;;;16.50;49.62
70684;BME280;58263;48.146;11.440;2023-05-19T09:52:42;95966.81;;;16.62;49.00
70684;BME280;58263;48.146;11.440;2023-05-19T09:55:09;95980.34;;;16.56;48.39
70684;BME280;58263;48.146;11.440;2023-05-19T09:57:35;95970.63;;;16.66;48.90
70684;BME280;58263;48.146;11.440;2023-05-19T10:00:08;95976.53;;;16.58;48.32
70684;BME280;58263;48.146;11.440;2023-05-19T10:02:44;95969.66;;;16.39;49.16
70684;BME280;58263;48.146;11.440;2023-05-19T10:05:14;95963.22;;;16.46;48.72
70684;BME280;58263;48.146;11.440;2023-05-19T10:07:50;95964.53;;;16.38;49.28
70684;BME280;58263;48.146;11.440;2023-05-19T10:10:15;95964.34;;;16.12;49.84
70684;BME280;58263;48.146;11.440;2023-05-19T10:12:41;95968.97;;;16.17;49.73
70684;BME280;58263;48.146;11.440;2023-05-19T10:15:17;95961.13;;;16.15;49.56
70684;BME280;58263;48.146;11.440;2023-05-19T10:17:43;95961.69;;;16.17;49.37
70684;BME280;58263;48.146;11.440;2023-05-19T10:20:15;95961.56;;;15.97;49.89
70684;BME280;58263;48.146;11.440;2023-05-19T10:22:42;95968.06;;;16.01;50.32
70684;BME280;58263;48.146;11.440;2023-05-19T10:25:09;95969.13;;;16.00;49.52
70684;BME280;58263;48.146;11.440;2023-05-19T10:27:37;95970.03;;;15.78;50.08
70684;BME280;58263;48.146;11.440;2023-05-19T10:30:11;95973.06;;;15.54;50.87
70684;BME280;58263;48.146;11.440;2023-05-19T10:32:41;95969.25;;;15.50;51.27
70684;BME280;58263;48.146;11.440;2023-05-19T10:35:18;95961.63;;;15.47;51.51
70684;BME280;58263;48.146;11.440;2023-05-19T10:40:52;95959.09;;;15.63;50.85
70684;BME280;58263;48.146;11.440;2023-05-19T10:43:33;95964.22;;;15.64;51.02
70684;BME280;58263;48.146;11.440;2023-05-19T10:46:01;95964.53;;;15.68;50.81
70684;BME280;58263;48.146;11.440;2023-05-19T10:48:32;95970.84;;;15.51;51.36
70684;BME280;58263;48.146;11.440;2023-05-19T10:50:58;95973.09;;;15.60;51.68
70684;BME280;58263;48.146;11.440;2023-05-19T10:53:30;95966.75;;;15.16;52.11
70684;BME280;58263;48.146;11.440;2023-05-19T10:55:55;95969.84;;;15.58;51.80
70684;BME280;58263;48.146;11.440;2023-05-19T11:01:17;95961.03;;;16.00;51.53
70684;BME280;58263;48.146;11.440;2023-05-19T11:08:59;95953.59;;;15.85;50.74
70684;BME280;58263;48.146;11.440;2023-05-19T11:11:26;95955.53;;;15.89;50.94
70684;BME280;58263;48.146;11.440;2023-05-19T11:13:55;95948.44;;;16.16;50.43
70684;BME280;58263;48.146;11.440;2023-05-19T11:16:47;95951.50;;;16.35;49.59
70684;BME280;58263;48.146;11.440;2023-05-19T11:19:25;95950.16;;;16.32;50.00
70684;BME280;58263;48.146;11.440;2023-05-19T11:21:51;95958.47;;;16.20;49.96
70684;BME280;58263;48.146;11.440;2023-05-19T11:24:45;95960.63;;;16.23;50.49
70684;BME280;58263;48.146;11.440;2023-05-19T11:27:27;95947.59;;;16.15;50.17
70684;BME280;58263;48.146;11.440;2023-05-19T11:32:32;95950.91;;;16.28;50.46
70684;BME280;58263;48.146;11.440;2023-05-19T11:34:58;95944.47;;;16.34;50.64
70684;BME280;58263;48.146;11.440;2023-05-19T11:37:24;95951.50;;;16.35;50.52
70684;BME280;58263;48.146;11.440;2023-05-19T11:39:51;95946.47;;;16.59;49.99
70684;BME280;58263;48.146;11.440;2023-05-19T11:42:16;95951.75;;;16.81;49.40
70684;BME280;58263;48.146;11.440;2023-05-19T11:44:42;95951.72;;;16.76;49.12
70684;BME280;58263;48.146;11.440;2023-05-19T11:47:10;95960.00;;;16.54;49.58
70684;BME280;58263;48.146;11.440;2023-05-19T11:49:35;95958.91;;;16.50;49.79
70684;BME280;58263;48.146;11.440;2023-05-19T11:52:01;95962.84;;;16.32;50.53
70684;BME280;58263;48.146;11.440;2023-05-19T11:54:32;95941.91;;;16.12;50.77
70684;BME280;58263;48.146;11.440;2023-05-19T11:57:03;95958.84;;;16.02;51.43
70684;BME280;58263;48.146;11.440;2023-05-19T11:59:32;95950.78;;;16.07;51.08
70684;BME280;58263;48.146;11.440;2023-05-19T12:02:06;95948.78;;;15.92;51.93
70684;BME280;58263;48.146;11.440;2023-05-19T12:04:39;95956.75;;;16.09;51.28
70684;BME280;58263;48.146;11.440;2023-05-19T12:07:04;95952.41;;;16.08;50.82
70684;BME280;58263;48.146;11.440;2023-05-19T12:09:29;95962.13;;;16.04;51.04
70684;BME280;58263;48.146;11.440;2023-05-19T12:11:55;95960.00;;;16.06;51.84
70684;BME280;58263;48.146;11.440;2023-05-19T12:14:20;95957.16;;;15.91;51.39
70684;BME280;58263;48.146;11.440;2023-05-19T12:16:46;95959.16;;;16.05;51.08
70684;BME280;58263;48.146;11.440;2023-05-19T12:19:11;95962.84;;;16.27;50.62
70684;BME280;58263;48.146;11.440;2023-05-19T12:21:36;95949.31;;;16.27;50.02
70684;BME280;58263;48.146;11.440;2023-05-19T12:24:03;95956.25;;;16.12;50.40
70684;BME280;58263;48.146;11.440;2023-05-19T12:26:30;95958.59;;;15.98;50.79
70684;BME280;58263;48.146;11.440;2023-05-19T12:28:55;95962.44;;;16.08;50.75
70684;BME280;58263;48.146;11.440;2023-05-19T12:31:22;95954.09;;;16.19;50.56
70684;BME280;58263;48.146;11.440;2023-05-19T12:33:48;95961.38;;;16.14;50.51
70684;BME280;58263;48.146;11.440;2023-05-19T12:36:17;95954.63;;;16.16;50.95
70684;BME280;58263;48.146;11.440;2023-05-19T12:38:43;95952.59;;;16.34;50.66
70684;BME280;58263;48.146;11.440;2023-05-19T12:41:12;95950.41;;;16.31;50.62
70684;BME280;58263;48.146;11.440;2023-05-19T12:43:39;95949.97;;;16.54;50.71
70684;BME280;58263;48.146;11.440;2023-05-19T12:46:12;95954.16;;;16.78;49.56
70684;BME280;58263;48.146;11.440;2023-05-19T12:48:42;95955.44;;;16.60;48.99
70684;BME280;58263;48.146;11.440;2023-05-19T12:51:08;95955.34;;;16.44;49.65
70684;BME280;58263;48.146;11.440;2023-05-19T12:53:34;95958.69;;;16.56;50.39
70684;BME280;58263;48.146;11.440;2023-05-19T12:55:59;95958.09;;;16.54;50.50
70684;BME280;58263;48.146;11.440;2023-05-19T12:58:24;95956.44;;;16.48;50.14
70684;BME280;58263;48.146;11.440;2023-05-19T13:00:57;95946.38;;;16.38;50.16
70684;BME280;58263;48.146;11.440;2023-05-19T13:03:22;95938.47;;;16.27;49.97
70684;BME280;58263;48.146;11.440;2023-05-19T13:05:49;95949.44;;;16.58;50.48
70684;BME280;58263;48.146;11.440;2023-05-19T13:08:19;95963.34;;;16.77;49.63
70684;BME280;58263;48.146;11.440;2023-05-19T13:10:46;95951.28;;;16.95;48.79
70684;BME280;58263;48.146;11.440;2023-05-19T13:13:12;95956.56;;;16.74;48.97
70684;BME280;58263;48.146;11.440;2023-05-19T13:15:40;95949.06;;;16.92;49.92
70684;BME280;58263;48.146;11.440;2023-05-19T13:18:07;95950.75;;;17.03;50.02
70684;BME280;58263;48.146;11.440;2023-05-19T13:20:33;95945.16;;;17.87;47.97